Time;durP1;ratioP1;P1;durP2;ratioP2;P2;SDS_P1;SDS_P2;PMS_P1;PMS_P2;Temp;Humidity;BMP_temperature;BMP_pressure;BME280_temperature;BME280_humidity;BME280_pressure;Samples;Min_cycle;Max_cycle;Signal;HPM_P1;HPM_P2
2022/01/12 00:01:29;;;;;;;47.70;23.70;;;0.60;65.90;;;;;;5071136;28;20457;-66
2022/01/12 00:03:55;;;;;;;49.88;22.20;;;0.60;65.90;;;;;;5072038;28;20017;-66
2022/01/12 00:06:21;;;;;;;48.38;21.95;;;0.70;65.80;;;;;;5072663;28;20074;-66
2022/01/12 00:08:48;;;;;;;43.47;21.83;;;0.70;65.50;;;;;;5070549;28;20036;-67
2022/01/12 00:11:14;;;;;;;45.30;23.35;;;0.60;65.60;;;;;;5072007;28;20479;-66
2022/01/12 00:13:40;;;;;;;54.00;23.75;;;0.70;65.90;;;;;;5069591;28;20379;-66
2022/01/12 00:16:06;;;;;;;50.25;22.50;;;0.80;65.50;;;;;;5070472;28;20111;-66
2022/01/12 00:18:32;;;;;;;44.72;22.35;;;0.80;65.30;;;;;;5071928;28;20028;-66
2022/01/12 00:20:58;;;;;;;45.28;22.40;;;0.80;65.30;;;;;;5072133;28;20054;-66
2022/01/12 00:23:24;;;;;;;41.95;21.77;;;0.70;65.30;;;;;;5079147;28;20104;-66
2022/01/12 00:33:53;;;;;;;41.60;21.08;;;0.60;65.50;;;;;;5072643;28;20028;-66
2022/01/12 00:36:20;;;;;;;44.67;21.92;;;0.60;65.60;;;;;;5071507;28;20108;-67
2022/01/12 00:39:04;;;;;;;40.47;20.80;;;0.70;65.50;;;;;;5071319;28;20067;-67
2022/01/12 00:41:30;;;;;;;43.50;22.50;;;0.60;65.50;;;;;;5070702;28;20350;-67
2022/01/12 00:44:00;;;;;;;46.65;22.55;;;0.70;65.60;;;;;;5070156;28;20024;-67
2022/01/12 00:46:30;;;;;;;47.78;22.20;;;0.70;65.40;;;;;;5071994;28;20025;-67
2022/01/12 00:48:58;;;;;;;45.85;22.98;;;0.80;65.20;;;;;;5071367;28;20499;-67
2022/01/12 00:51:26;;;;;;;46.83;22.30;;;0.70;65.20;;;;;;5069206;28;20061;-67
2022/01/12 00:53:54;;;;;;;41.78;21.83;;;0.70;65.20;;;;;;5069878;28;20111;-67
2022/01/12 00:56:20;;;;;;;44.85;22.55;;;0.70;65.40;;;;;;5077169;28;20022;-67
2022/01/12 00:58:46;;;;;;;43.45;21.92;;;0.70;65.30;;;;;;5071606;28;20028;-67
2022/01/12 01:01:12;;;;;;;43.95;22.77;;;0.70;65.30;;;;;;5070593;28;20031;-67
2022/01/12 01:03:38;;;;;;;44.25;22.33;;;0.60;65.60;;;;;;5070547;28;20035;-67
2022/01/12 01:08:51;;;;;;;44.15;21.40;;;0.50;66.00;;;;;;5070430;28;20052;-68
2022/01/12 01:11:17;;;;;;;44.22;22.65;;;0.50;66.20;;;;;;5060597;28;20086;-67
2022/01/12 01:13:57;;;;;;;44.60;23.35;;;0.40;66.30;;;;;;5071700;28;20476;-67
2022/01/12 01:16:42;;;;;;;42.47;21.30;;;0.40;66.50;;;;;;5069269;28;20064;-67
2022/01/12 01:27:25;;;;;;;47.90;24.10;;;0.50;66.20;;;;;;5057678;28;20085;-68
2022/01/12 01:29:53;;;;;;;50.20;23.67;;;0.40;66.20;;;;;;5071291;28;20036;-67
2022/01/12 01:32:19;;;;;;;44.50;20.90;;;0.30;66.70;;;;;;5070233;28;20020;-67
2022/01/12 01:34:47;;;;;;;48.22;23.80;;;0.30;66.80;;;;;;5068391;28;20461;-67
2022/01/12 01:37:13;;;;;;;47.72;23.52;;;0.40;66.80;;;;;;5069708;28;20043;-67
2022/01/12 01:39:40;;;;;;;47.72;23.77;;;0.30;66.90;;;;;;5071459;28;20024;-67
2022/01/12 01:42:17;;;;;;;46.95;23.13;;;0.30;66.70;;;;;;5070031;28;20115;-67
2022/01/12 01:55:28;;;;;;;43.97;21.45;;;0.30;66.90;;;;;;5059407;28;20035;-66
2022/01/12 01:57:54;;;;;;;45.58;22.00;;;0.30;66.70;;;;;;5068806;28;20119;-65
2022/01/12 02:00:23;;;;;;;42.08;21.65;;;0.40;66.60;;;;;;5084899;28;20545;-65
2022/01/12 02:02:50;;;;;;;46.78;23.08;;;0.30;66.50;;;;;;5071058;28;20472;-66
2022/01/12 02:05:16;;;;;;;54.30;23.95;;;0.30;66.50;;;;;;5069509;28;20021;-66
2022/01/12 02:07:43;;;;;;;49.35;23.42;;;0.40;66.50;;;;;;5071170;28;20074;-66
2022/01/12 02:10:09;;;;;;;44.88;24.05;;;0.30;66.50;;;;;;5070000;28;20059;-65
2022/01/12 02:12:35;;;;;;;49.33;25.35;;;0.40;66.50;;;;;;5065215;28;20056;-66
2022/01/12 02:15:01;;;;;;;51.75;24.80;;;0.30;66.50;;;;;;5069777;28;20445;-66
2022/01/12 02:17:39;;;;;;;47.63;24.23;;;0.20;66.60;;;;;;5067369;28;20081;-67
2022/01/12 02:36:29;;;;;;;47.33;22.65;;;0.20;66.80;;;;;;5075205;28;20185;-66
2022/01/12 02:41:41;;;;;;;47.25;22.58;;;0.20;66.70;;;;;;5069996;28;20097;-66
2022/01/12 02:54:46;;;;;;;46.42;23.50;;;0.00;67.20;;;;;;5057077;28;20059;-66
2022/01/12 02:57:12;;;;;;;47.53;23.30;;;0.10;67.20;;;;;;5069796;28;20040;-65
2022/01/12 02:59:47;;;;;;;48.75;24.73;;;0.00;67.50;;;;;;5067661;28;20402;-66
2022/01/12 03:02:23;;;;;;;49.67;23.05;;;0.00;67.60;;;;;;5069193;28;20036;-65
2022/01/12 03:05:09;;;;;;;50.58;22.85;;;0.00;67.60;;;;;;5069090;28;20028;-65
2022/01/12 03:07:38;;;;;;;43.83;22.08;;;-0.10;67.50;;;;;;5062649;28;20036;-66
2022/01/12 03:10:08;;;;;;;47.22;23.05;;;0.00;67.40;;;;;;5073384;28;20028;-66
2022/01/12 03:12:44;;;;;;;46.75;23.17;;;0.10;67.10;;;;;;5069479;28;20057;-66
2022/01/12 03:15:10;;;;;;;48.80;23.48;;;0.10;67.00;;;;;;5069334;28;20025;-67
2022/01/12 03:17:36;;;;;;;47.88;23.73;;;0.00;67.20;;;;;;5068224;28;20028;-66
2022/01/12 03:20:21;;;;;;;47.58;24.63;;;0.00;67.20;;;;;;5069157;28;20437;-66
2022/01/12 03:22:46;;;;;;;46.00;22.15;;;0.00;67.10;;;;;;5058759;28;20385;-66
2022/01/12 03:25:12;;;;;;;42.97;22.58;;;0.00;67.10;;;;;;5080382;28;20024;-66
2022/01/12 03:27:39;;;;;;;43.33;22.83;;;0.00;67.10;;;;;;5073664;28;20033;-66
2022/01/12 03:30:05;;;;;;;45.10;21.88;;;0.00;67.00;;;;;;5072610;28;20107;-66
2022/01/12 03:32:38;;;;;;;47.47;23.38;;;0.00;67.00;;;;;;5071658;28;20024;-67
2022/01/12 03:35:12;;;;;;;49.75;23.77;;;0.00;66.90;;;;;;5071923;28;20476;-66
2022/01/12 03:37:53;;;;;;;45.28;22.73;;;0.00;66.90;;;;;;5073488;28;20063;-66
2022/01/12 03:40:20;;;;;;;44.22;22.45;;;0.00;67.10;;;;;;5072306;28;20380;-66
2022/01/12 03:42:45;;;;;;;47.10;23.60;;;0.10;67.10;;;;;;5075520;28;20377;-66
2022/01/12 03:45:11;;;;;;;50.47;23.75;;;0.00;67.00;;;;;;5072638;28;20078;-67
2022/01/12 03:47:37;;;;;;;47.78;23.48;;;0.10;66.90;;;;;;5070244;28;20036;-66
2022/01/12 03:50:03;;;;;;;52.00;24.52;;;0.00;66.90;;;;;;5072746;28;20465;-66
2022/01/12 03:52:29;;;;;;;48.42;24.35;;;0.00;67.00;;;;;;5070524;28;20032;-66
2022/01/12 03:54:55;;;;;;;50.22;24.02;;;-0.10;67.30;;;;;;5067305;28;20090;-66
2022/01/12 03:57:21;;;;;;;49.63;23.52;;;-0.20;67.40;;;;;;5069850;28;20178;-66
2022/01/12 03:59:47;;;;;;;52.88;24.60;;;-0.30;67.60;;;;;;5071602;28;20029;-66
2022/01/12 04:02:13;;;;;;;46.85;23.15;;;-0.30;68.00;;;;;;5071640;28;20044;-65
2022/01/12 04:05:03;;;;;;;54.35;25.20;;;-0.40;68.00;;;;;;5073360;28;20028;-66
2022/01/12 04:10:08;;;;;;;52.97;24.80;;;-0.40;68.00;;;;;;5071505;28;20040;-66
2022/01/12 04:12:34;;;;;;;50.00;24.95;;;-0.30;68.10;;;;;;5072237;28;20048;-67
2022/01/12 04:15:00;;;;;;;56.35;24.83;;;-0.30;68.60;;;;;;5071642;28;20102;-65
2022/01/12 04:17:25;;;;;;;49.97;24.20;;;-0.30;68.10;;;;;;5073672;28;20033;-66
2022/01/12 04:19:51;;;;;;;57.30;26.95;;;-0.30;68.00;;;;;;5071371;28;20037;-66
2022/01/12 04:25:01;;;;;;;54.20;25.20;;;-0.40;68.00;;;;;;5071509;28;20055;-65
2022/01/12 04:27:27;;;;;;;53.90;26.92;;;-0.40;68.20;;;;;;5071966;28;20476;-66
2022/01/12 04:29:52;;;;;;;53.08;25.73;;;-0.40;68.40;;;;;;5081452;28;20025;-66
2022/01/12 04:32:20;;;;;;;55.72;26.75;;;-0.40;68.30;;;;;;5071140;28;20026;-65
2022/01/12 04:34:46;;;;;;;53.58;25.92;;;-0.40;68.30;;;;;;5070838;28;20021;-66
2022/01/12 04:37:12;;;;;;;51.30;25.42;;;-0.40;68.30;;;;;;5070953;28;20435;-65
2022/01/12 04:39:37;;;;;;;54.58;26.00;;;-0.40;68.30;;;;;;5070865;28;20025;-66
2022/01/12 04:42:03;;;;;;;53.08;25.30;;;-0.40;68.30;;;;;;5072511;28;20024;-66
2022/01/12 04:44:30;;;;;;;57.95;25.45;;;-0.50;68.40;;;;;;5071633;28;20083;-66
2022/01/12 04:47:06;;;;;;;51.08;25.08;;;-0.50;68.60;;;;;;5074598;28;20029;-65
2022/01/12 04:49:47;;;;;;;54.60;25.55;;;-0.50;68.60;;;;;;5069301;28;20036;-66
2022/01/12 04:52:14;;;;;;;56.90;26.83;;;-0.50;68.80;;;;;;5069897;28;20492;-66
2022/01/12 04:54:40;;;;;;;53.53;26.60;;;-0.50;68.80;;;;;;5072573;28;20104;-66
2022/01/12 04:57:06;;;;;;;56.67;24.85;;;-0.50;68.70;;;;;;5070742;28;20103;-66
2022/01/12 04:59:35;;;;;;;49.63;25.35;;;-0.60;68.80;;;;;;5070346;28;20024;-66
2022/01/12 05:06:23;;;;;;;49.90;24.60;;;-0.60;68.80;;;;;;5068663;28;20472;-66
2022/01/12 05:07:43;;;;;;;49.10;24.85;;;-0.60;69.00;;;;;;5070169;28;20511;-67
2022/01/12 05:12:55;;;;;;;52.67;24.75;;;-0.70;68.90;;;;;;5069751;28;20045;-66
2022/01/12 05:15:34;;;;;;;49.92;23.50;;;-0.70;69.10;;;;;;5070621;28;20483;-65
2022/01/12 05:18:00;;;;;;;45.90;21.70;;;-0.70;69.10;;;;;;5068307;28;20052;-66
2022/01/12 05:20:26;;;;;;;47.88;23.80;;;-0.60;68.80;;;;;;5076924;28;20085;-66
2022/01/12 05:22:52;;;;;;;52.22;24.92;;;-0.60;68.60;;;;;;5071576;28;20025;-66
2022/01/12 05:25:18;;;;;;;48.75;23.92;;;-0.60;68.60;;;;;;5070426;28;20047;-66
2022/01/12 05:27:45;;;;;;;51.50;24.58;;;-0.60;68.60;;;;;;5068815;28;20035;-66
2022/01/12 05:30:30;;;;;;;55.78;25.58;;;-0.60;68.60;;;;;;5070315;28;20457;-66
2022/01/12 05:32:56;;;;;;;58.25;25.60;;;-0.60;68.60;;;;;;5069900;28;20024;-66
2022/01/12 05:35:21;;;;;;;50.00;24.60;;;-0.60;68.40;;;;;;5073886;28;20028;-66
2022/01/12 05:37:47;;;;;;;51.00;24.75;;;-0.60;68.40;;;;;;5068228;28;20046;-66
2022/01/12 05:40:16;;;;;;;58.95;26.50;;;-0.60;68.40;;;;;;5070241;28;20468;-65
2022/01/12 05:42:43;;;;;;;54.70;26.75;;;-0.60;68.60;;;;;;5068097;28;20465;-67
2022/01/12 05:45:10;;;;;;;52.33;26.13;;;-0.60;68.60;;;;;;5070132;28;20106;-66
2022/01/12 05:50:01;;;;;;;52.45;26.30;;;-0.60;68.80;;;;;;5070426;28;20031;-65
2022/01/12 05:52:27;;;;;;;59.88;27.52;;;-0.60;68.60;;;;;;5069471;28;20159;-66
2022/01/12 05:54:53;;;;;;;57.28;26.48;;;-0.70;68.50;;;;;;5076064;28;20091;-66
2022/01/12 05:57:18;;;;;;;55.17;26.23;;;-0.70;68.90;;;;;;5063969;28;20182;-66
2022/01/12 05:59:44;;;;;;;54.75;25.27;;;-1.00;69.70;;;;;;5069385;28;20028;-66
2022/01/12 06:02:10;;;;;;;49.33;25.58;;;-1.00;70.00;;;;;;5068170;28;20508;-67
2022/01/12 06:04:35;;;;;;;55.13;26.83;;;-1.00;70.00;;;;;;5073586;28;20051;-66
2022/01/12 06:07:02;;;;;;;52.33;26.15;;;-0.90;70.00;;;;;;5076570;28;20032;-66
2022/01/12 06:09:27;;;;;;;53.28;25.52;;;-0.90;70.00;;;;;;5070322;28;20033;-66
2022/01/12 06:11:53;;;;;;;45.50;24.23;;;-1.00;70.00;;;;;;5067902;28;20046;-65
2022/01/12 06:14:20;;;;;;;51.80;25.88;;;-1.00;70.40;;;;;;5069840;28;20020;-66
2022/01/12 06:16:46;;;;;;;51.42;25.05;;;-1.00;70.60;;;;;;5066750;28;20017;-65
2022/01/12 06:19:12;;;;;;;53.75;24.70;;;-1.00;70.60;;;;;;5068316;28;20055;-68
2022/01/12 06:21:38;;;;;;;53.83;24.25;;;-1.00;70.60;;;;;;5069980;28;20083;-67
2022/01/12 06:24:04;;;;;;;51.42;25.33;;;-1.00;70.60;;;;;;5065849;28;20039;-65
2022/01/12 06:26:30;;;;;;;54.92;25.35;;;-0.90;70.60;;;;;;5069219;28;20035;-66
2022/01/12 06:31:30;;;;;;;49.47;24.50;;;-0.80;70.30;;;;;;5069064;28;20032;-67
2022/01/12 06:33:55;;;;;;;56.33;25.13;;;-0.90;70.50;;;;;;5070496;28;20028;-66
2022/01/12 06:36:22;;;;;;;50.33;25.48;;;-1.10;71.10;;;;;;5068424;28;20386;-66
2022/01/12 06:38:48;;;;;;;51.88;25.50;;;-1.10;71.40;;;;;;5066768;28;20041;-68
2022/01/12 06:41:14;;;;;;;53.20;24.88;;;-1.20;71.90;;;;;;5067944;28;20477;-68
2022/01/12 06:43:41;;;;;;;50.05;24.77;;;-1.10;71.90;;;;;;5069287;28;20062;-68
2022/01/12 06:46:08;;;;;;;44.55;22.75;;;-1.00;71.50;;;;;;5062311;28;20035;-69
2022/01/12 06:48:35;;;;;;;52.75;24.15;;;-1.00;71.20;;;;;;5065116;28;20040;-69
2022/01/12 06:53:46;;;;;;;51.50;24.90;;;-0.90;70.90;;;;;;5065977;28;20521;-68
2022/01/12 06:56:15;;;;;;;50.08;23.85;;;-0.80;70.80;;;;;;5068964;28;20035;-68
2022/01/12 06:58:42;;;;;;;57.05;24.33;;;-0.80;70.70;;;;;;5083784;28;20036;-69
2022/01/12 07:01:07;;;;;;;49.63;24.63;;;-0.80;70.70;;;;;;5071723;28;20028;-68
2022/01/12 07:03:33;;;;;;;49.65;24.33;;;-0.80;70.60;;;;;;5068886;28;20021;-68
2022/01/12 07:05:59;;;;;;;53.13;25.83;;;-0.70;70.60;;;;;;5070138;28;20482;-68
2022/01/12 07:08:25;;;;;;;49.53;24.67;;;-0.70;70.60;;;;;;5073972;28;20107;-68
2022/01/12 07:10:50;;;;;;;48.65;25.30;;;-0.60;70.60;;;;;;5070880;28;20033;-68
2022/01/12 07:13:16;;;;;;;51.88;23.67;;;-0.60;70.40;;;;;;5071527;28;20052;-68
2022/01/12 07:15:43;;;;;;;48.65;24.67;;;-0.50;70.10;;;;;;5069213;28;20032;-68
2022/01/12 07:18:09;;;;;;;45.75;23.38;;;-0.30;70.00;;;;;;5072125;28;20041;-69
2022/01/12 07:20:35;;;;;;;45.47;23.33;;;-0.30;69.20;;;;;;5069829;28;20036;-69
2022/01/12 07:23:01;;;;;;;50.80;23.50;;;-0.20;69.30;;;;;;5069977;28;20016;-69
2022/01/12 07:25:27;;;;;;;59.45;23.83;;;-0.10;68.70;;;;;;5072428;28;20397;-69
2022/01/12 07:27:53;;;;;;;46.70;22.83;;;0.00;68.60;;;;;;5070128;28;20453;-68
2022/01/12 07:30:20;;;;;;;42.85;22.65;;;0.10;68.30;;;;;;5064739;28;20025;-68
2022/01/12 07:32:46;;;;;;;49.58;22.80;;;0.20;67.70;;;;;;5064840;28;20032;-69
2022/01/12 07:35:12;;;;;;;49.65;24.20;;;0.20;67.70;;;;;;5070730;28;20081;-68
2022/01/12 07:37:38;;;;;;;46.20;23.52;;;0.30;67.10;;;;;;5071224;28;20462;-68
2022/01/12 07:40:04;;;;;;;43.67;22.95;;;0.40;66.70;;;;;;5075054;28;20481;-68
2022/01/12 07:42:30;;;;;;;41.42;21.13;;;0.40;66.30;;;;;;5083643;28;20036;-69
2022/01/12 07:45:00;;;;;;;45.00;22.00;;;0.30;66.30;;;;;;5072120;28;20025;-68
2022/01/12 07:47:30;;;;;;;50.03;22.52;;;0.40;66.60;;;;;;5074610;28;20056;-69
2022/01/12 07:49:58;;;;;;;44.13;21.73;;;0.40;66.10;;;;;;5071479;28;20029;-68
2022/01/12 07:52:24;;;;;;;41.30;22.02;;;0.40;66.20;;;;;;5070002;28;20025;-67
2022/01/12 07:54:50;;;;;;;45.25;22.67;;;0.50;66.20;;;;;;5071756;28;20067;-70
2022/01/12 07:57:16;;;;;;;74.22;24.50;;;0.60;66.00;;;;;;5079853;28;20056;-63
2022/01/12 07:59:43;;;;;;;50.40;23.73;;;0.50;65.80;;;;;;5072794;28;20025;-63
2022/01/12 08:02:08;;;;;;;40.58;22.05;;;0.50;65.70;;;;;;5070924;28;20097;-72
2022/01/12 08:04:35;;;;;;;46.97;23.35;;;0.60;66.00;;;;;;5072295;28;20473;-70
2022/01/12 08:07:02;;;;;;;42.83;22.92;;;0.60;65.50;;;;;;5072065;28;20341;-71
2022/01/12 08:09:28;;;;;;;49.53;24.00;;;0.70;65.50;;;;;;5073587;28;20025;-71
2022/01/12 08:11:54;;;;;;;45.42;22.90;;;0.80;65.00;;;;;;5071623;28;20048;-71
2022/01/12 08:14:20;;;;;;;46.00;21.42;;;0.80;65.00;;;;;;5071859;28;20024;-71
2022/01/12 08:16:46;;;;;;;53.20;23.15;;;0.80;64.70;;;;;;5072635;28;20028;-70
2022/01/12 08:19:16;;;;;;;44.17;22.35;;;0.80;64.60;;;;;;5071456;28;20135;-71
2022/01/12 08:21:42;;;;;;;47.88;23.58;;;0.90;64.80;;;;;;5070846;28;20550;-71
2022/01/12 08:24:09;;;;;;;42.35;22.38;;;0.90;64.40;;;;;;5072924;28;20032;-72
2022/01/12 08:26:35;;;;;;;43.17;24.05;;;0.90;64.40;;;;;;5072145;28;20033;-71
2022/01/12 08:29:01;;;;;;;42.03;22.13;;;1.00;64.40;;;;;;5070606;28;20491;-71
2022/01/12 08:31:27;;;;;;;44.50;23.35;;;1.10;64.50;;;;;;5073077;28;20448;-72
2022/01/12 08:33:53;;;;;;;44.47;21.98;;;1.20;63.80;;;;;;5054568;28;20443;-70
2022/01/12 08:36:18;;;;;;;45.15;22.73;;;1.20;63.30;;;;;;5075776;28;20026;-68
2022/01/12 08:38:44;;;;;;;35.97;19.95;;;1.30;63.10;;;;;;5083383;28;20459;-70
2022/01/12 08:41:10;;;;;;;42.72;21.63;;;1.30;62.10;;;;;;5073188;28;20040;-72
2022/01/12 08:43:36;;;;;;;43.72;23.20;;;1.30;62.40;;;;;;5072801;28;20043;-70
2022/01/12 08:46:02;;;;;;;42.15;21.52;;;1.20;62.60;;;;;;5070576;28;20570;-72
2022/01/12 08:48:28;;;;;;;42.25;21.55;;;1.30;62.40;;;;;;5071541;28;20033;-72
2022/01/12 08:50:54;;;;;;;47.25;22.17;;;1.20;62.40;;;;;;5069227;28;20024;-71
2022/01/12 08:53:20;;;;;;;43.85;22.48;;;1.30;62.70;;;;;;5071145;28;20029;-71
2022/01/12 08:55:46;;;;;;;58.70;22.30;;;1.40;62.40;;;;;;5072607;28;20040;-71
2022/01/12 08:58:13;;;;;;;42.55;21.55;;;1.40;61.80;;;;;;5069648;28;20032;-69
2022/01/12 09:00:39;;;;;;;40.80;21.13;;;1.50;61.70;;;;;;5072992;28;20060;-64
2022/01/12 09:03:05;;;;;;;44.05;22.33;;;1.50;61.70;;;;;;5065178;28;20059;-67
2022/01/12 09:05:31;;;;;;;35.63;20.02;;;1.50;61.80;;;;;;5061327;28;20032;-64
2022/01/12 09:07:59;;;;;;;34.25;18.90;;;1.60;61.40;;;;;;5063689;28;20041;-74
2022/01/12 09:10:25;;;;;;;38.55;19.92;;;1.50;60.90;;;;;;5059100;28;20074;-63
2022/01/12 09:12:51;;;;;;;49.00;20.92;;;1.50;61.00;;;;;;5071576;28;20076;-66
2022/01/12 09:15:17;;;;;;;46.35;20.10;;;1.50;60.70;;;;;;5059865;28;20064;-63
2022/01/12 09:17:44;;;;;;;38.33;19.55;;;1.60;60.20;;;;;;5066195;28;20371;-67
2022/01/12 09:20:10;;;;;;;34.50;18.38;;;1.60;60.00;;;;;;5062921;28;20159;-68
2022/01/12 09:22:37;;;;;;;40.38;20.42;;;1.70;60.70;;;;;;5058259;28;20055;-70
2022/01/12 09:25:05;;;;;;;39.78;20.08;;;1.70;59.80;;;;;;5063375;28;20387;-74
2022/01/12 09:27:31;;;;;;;40.42;19.58;;;1.70;59.50;;;;;;5068247;28;20542;-74
2022/01/12 09:29:57;;;;;;;34.78;19.85;;;1.80;60.00;;;;;;5070808;28;20107;-70
2022/01/12 09:32:22;;;;;;;38.50;19.65;;;1.90;60.10;;;;;;5058218;28;20111;-63
2022/01/12 09:34:48;;;;;;;37.88;20.05;;;2.00;59.80;;;;;;5070147;28;20032;-65
2022/01/12 09:37:14;;;;;;;46.20;21.33;;;2.00;59.30;;;;;;5071943;28;20032;-72
2022/01/12 09:39:40;;;;;;;44.00;21.02;;;2.10;59.40;;;;;;5070832;28;20025;-70
2022/01/12 09:42:07;;;;;;;40.63;20.00;;;2.10;58.90;;;;;;5069812;28;20078;-65
2022/01/12 09:44:35;;;;;;;40.63;21.08;;;2.10;59.20;;;;;;5070798;28;20036;-69
2022/01/12 09:47:04;;;;;;;44.42;21.50;;;2.20;59.00;;;;;;5068583;28;20115;-71
2022/01/12 09:49:30;;;;;;;47.30;22.15;;;2.20;59.00;;;;;;5070429;28;20119;-70
2022/01/12 09:51:57;;;;;;;43.25;21.63;;;2.20;58.60;;;;;;5064308;28;20033;-74
2022/01/12 09:54:25;;;;;;;42.60;22.17;;;2.20;58.90;;;;;;5069755;28;20032;-67
2022/01/12 09:56:52;;;;;;;40.28;21.20;;;2.20;59.00;;;;;;5069110;28;20103;-73
2022/01/12 09:59:17;;;;;;;45.83;22.45;;;2.30;58.40;;;;;;5071175;28;20053;-71
2022/01/12 10:01:45;;;;;;;46.97;23.00;;;2.20;58.60;;;;;;5070596;28;20033;-70
2022/01/12 10:04:21;;;;;;;41.75;21.45;;;2.20;58.80;;;;;;5068149;28;20037;-65
2022/01/12 10:06:53;;;;;;;43.50;22.67;;;2.00;58.60;;;;;;5071527;28;20549;-70
2022/01/12 10:09:44;;;;;;;42.17;21.70;;;2.00;59.50;;;;;;5076827;28;20387;-70
2022/01/12 10:12:18;;;;;;;42.58;21.58;;;2.10;59.50;;;;;;5084456;28;20068;-70
2022/01/12 10:14:49;;;;;;;47.50;22.45;;;2.20;59.00;;;;;;5070833;28;20028;-68
2022/01/12 10:17:19;;;;;;;42.92;22.88;;;2.10;59.50;;;;;;5068746;28;20108;-68
2022/01/12 10:19:46;;;;;;;45.10;22.20;;;2.10;59.30;;;;;;5070741;28;20020;-74
2022/01/12 10:22:16;;;;;;;40.00;22.20;;;2.00;59.40;;;;;;5070962;28;20021;-70
2022/01/12 10:24:45;;;;;;;41.35;22.23;;;2.10;59.40;;;;;;5070109;28;20090;-69
2022/01/12 10:27:16;;;;;;;44.72;22.95;;;2.10;59.50;;;;;;5070493;28;20100;-72
2022/01/12 10:29:43;;;;;;;44.30;21.85;;;2.10;59.90;;;;;;5067133;28;20031;-68
2022/01/12 10:32:09;;;;;;;45.65;21.90;;;2.10;59.60;;;;;;5069532;28;20029;-69
2022/01/12 10:34:43;;;;;;;42.13;22.77;;;2.20;59.80;;;;;;5073529;28;20468;-74
2022/01/12 10:37:11;;;;;;;45.15;22.50;;;2.40;59.70;;;;;;5075492;28;20025;-69
2022/01/12 10:39:48;;;;;;;40.15;21.20;;;2.50;59.30;;;;;;5076194;28;20036;-68
2022/01/12 10:42:19;;;;;;;42.28;21.67;;;2.60;59.10;;;;;;5075949;28;20082;-75
2022/01/12 10:44:48;;;;;;;40.60;22.17;;;2.50;58.80;;;;;;5062793;28;20385;-73
2022/01/12 10:47:22;;;;;;;41.53;21.58;;;2.60;59.00;;;;;;5074928;28;20024;-69
2022/01/12 10:49:53;;;;;;;;;;;2.70;59.50;;;;;;5078902;28;20162;-73
2022/01/12 10:52:20;;;;;;;47.15;21.08;;;2.50;58.60;;;;;;5077373;28;19909;-74
2022/01/12 10:54:55;;;;;;;38.60;20.17;;;2.50;58.80;;;;;;5077836;28;20025;-66
2022/01/12 10:57:36;;;;;;;39.45;20.75;;;2.60;58.90;;;;;;5076119;28;20039;-75
2022/01/12 11:00:19;;;;;;;41.63;21.02;;;2.70;58.30;;;;;;5077127;28;20042;-70
2022/01/12 11:02:54;;;;;;;42.20;22.02;;;2.80;58.70;;;;;;5076510;28;20058;-71
2022/01/12 11:05:23;;;;;;;46.22;23.65;;;2.90;58.20;;;;;;5080740;28;20021;-70
2022/01/12 11:07:50;;;;;;;49.25;24.90;;;2.90;57.30;;;;;;5077319;28;20090;-71
2022/01/12 11:10:16;;;;;;;47.42;22.05;;;3.00;57.60;;;;;;5077681;28;20024;-71
2022/01/12 11:12:42;;;;;;;51.47;23.63;;;2.80;57.30;;;;;;5075818;28;20045;-69
2022/01/12 11:15:10;;;;;;;43.42;21.60;;;2.90;57.20;;;;;;5077218;28;20028;-64
2022/01/12 11:17:38;;;;;;;38.83;20.98;;;3.00;57.60;;;;;;5074805;28;20059;-69
2022/01/12 11:20:30;;;;;;;37.58;20.60;;;3.00;56.90;;;;;;5074585;28;20373;-71
2022/01/12 11:23:06;;;;;;;36.58;20.13;;;2.80;57.20;;;;;;5074379;28;20067;-72
2022/01/12 11:25:37;;;;;;;37.00;19.30;;;2.90;57.20;;;;;;5067532;28;20024;-72
2022/01/12 11:28:24;;;;;;;55.10;22.58;;;3.00;57.30;;;;;;5076385;28;20060;-66
2022/01/12 11:30:55;;;;;;;34.67;19.95;;;3.00;56.40;;;;;;5075658;28;20028;-69
2022/01/12 11:33:34;;;;;;;36.97;20.02;;;2.90;56.50;;;;;;5076308;28;20036;-67
2022/01/12 11:36:10;;;;;;;41.63;20.15;;;3.00;57.10;;;;;;5077577;28;20040;-72
2022/01/12 11:38:36;;;;;;;33.28;19.50;;;3.10;56.80;;;;;;5076761;28;20029;-73
2022/01/12 11:41:26;;;;;;;37.72;19.98;;;3.10;56.00;;;;;;5077016;28;20119;-68
2022/01/12 11:43:54;;;;;;;39.35;21.25;;;3.00;56.30;;;;;;5075199;28;20040;-72
2022/01/12 11:46:23;;;;;;;40.60;20.48;;;2.90;56.50;;;;;;5072204;28;20177;-70
2022/01/12 11:48:53;;;;;;;53.42;23.55;;;2.90;56.30;;;;;;5073713;28;20388;-69
2022/01/12 11:51:31;;;;;;;41.67;20.38;;;2.80;56.80;;;;;;5074483;28;20021;-65
2022/01/12 11:54:10;;;;;;;36.08;20.90;;;2.90;56.80;;;;;;5072511;28;20028;-71
2022/01/12 11:56:38;;;;;;;40.42;20.60;;;3.00;56.70;;;;;;5073610;28;20028;-65
2022/01/12 11:59:08;;;;;;;41.28;21.33;;;3.10;56.40;;;;;;5073220;28;20032;-68
2022/01/12 12:01:50;;;;;;;54.55;24.50;;;3.20;57.20;;;;;;5072814;28;20032;-65
2022/01/12 12:04:23;;;;;;;37.60;20.90;;;3.10;56.40;;;;;;5069639;28;20024;-69
2022/01/12 12:06:50;;;;;;;36.42;19.73;;;3.10;56.50;;;;;;5071821;28;20491;-68
2022/01/12 12:09:19;;;;;;;50.80;22.33;;;3.10;56.20;;;;;;5071815;28;20055;-68
2022/01/12 12:11:51;;;;;;;39.92;20.67;;;3.10;56.40;;;;;;5072581;28;20116;-68
2022/01/12 12:14:19;;;;;;;40.25;21.63;;;3.10;56.60;;;;;;5072412;28;20028;-68
2022/01/12 12:16:46;;;;;;;40.08;21.70;;;3.10;56.60;;;;;;5073357;28;20025;-67
2022/01/12 12:19:11;;;;;;;39.10;20.75;;;3.20;56.60;;;;;;5070738;28;20039;-66
2022/01/12 12:21:39;;;;;;;37.67;20.50;;;3.20;56.70;;;;;;5072040;28;20127;-67
2022/01/12 12:24:10;;;;;;;41.40;21.63;;;3.10;56.70;;;;;;5072811;28;20077;-66
2022/01/12 12:26:51;;;;;;;43.17;22.73;;;3.20;56.50;;;;;;5071502;28;20496;-67
2022/01/12 12:29:28;;;;;;;39.50;21.23;;;3.10;56.80;;;;;;5072197;28;20032;-68
2022/01/12 12:31:58;;;;;;;40.90;20.35;;;3.10;56.90;;;;;;5079929;28;20025;-67
2022/01/12 12:34:26;;;;;;;49.05;23.50;;;3.00;57.20;;;;;;5071847;28;20461;-68
2022/01/12 12:37:04;;;;;;;38.67;21.38;;;3.00;56.90;;;;;;5073271;28;20093;-67
2022/01/12 12:39:36;;;;;;;40.92;21.35;;;2.90;57.40;;;;;;5072901;28;20090;-67
2022/01/12 12:42:04;;;;;;;33.42;19.70;;;3.00;57.50;;;;;;5072288;28;20036;-66
2022/01/12 12:44:32;;;;;;;38.25;21.50;;;3.00;57.10;;;;;;5073158;28;20025;-69
2022/01/12 12:47:08;;;;;;;42.50;21.92;;;2.90;57.20;;;;;;5072032;28;20056;-66
2022/01/12 12:49:56;;;;;;;43.55;20.88;;;2.80;57.90;;;;;;5071849;28;20056;-67
2022/01/12 12:52:33;;;;;;;56.47;22.75;;;2.80;58.20;;;;;;5105535;28;20028;-67
2022/01/12 12:55:06;;;;;;;52.63;21.40;;;2.90;58.20;;;;;;5071878;28;20032;-67
2022/01/12 12:57:32;;;;;;;39.30;21.35;;;2.90;57.90;;;;;;5071238;28;20366;-68
2022/01/12 13:00:12;;;;;;;44.95;21.65;;;2.90;57.90;;;;;;5071132;28;20032;-65
2022/01/12 13:02:44;;;;;;;42.58;20.33;;;3.10;57.70;;;;;;5071873;28;20051;-69
2022/01/12 13:05:12;;;;;;;44.72;21.90;;;3.00;57.60;;;;;;5067412;28;20052;-74
2022/01/12 13:07:41;;;;;;;40.38;22.05;;;3.10;57.80;;;;;;5068389;28;20467;-69
2022/01/12 13:10:14;;;;;;;38.30;21.40;;;3.10;57.70;;;;;;5077596;28;20484;-70
2022/01/12 13:12:45;;;;;;;38.15;20.23;;;3.10;58.30;;;;;;5069694;28;20152;-69
2022/01/12 13:15:21;;;;;;;38.45;20.80;;;3.20;57.60;;;;;;5066379;28;20024;-68
2022/01/12 13:17:48;;;;;;;45.80;20.63;;;3.10;57.50;;;;;;5071795;28;20025;-68
2022/01/12 13:22:50;;;;;;;39.58;20.83;;;2.90;58.00;;;;;;5072199;28;20473;-69
2022/01/12 13:25:17;;;;;;;51.35;21.90;;;2.70;58.60;;;;;;5065741;28;20121;-69
2022/01/12 13:27:46;;;;;;;41.53;20.52;;;2.70;58.80;;;;;;5071972;28;20052;-69
2022/01/12 13:30:30;;;;;;;44.83;22.42;;;2.70;59.00;;;;;;5070171;28;20043;-69
2022/01/12 13:32:59;;;;;;;41.15;20.27;;;2.60;59.10;;;;;;5072145;28;20021;-69
2022/01/12 13:35:33;;;;;;;40.53;19.73;;;2.60;59.40;;;;;;5070443;28;20039;-69
2022/01/12 13:38:03;;;;;;;38.90;19.83;;;2.60;59.40;;;;;;5071947;28;20112;-70
2022/01/12 13:40:34;;;;;;;42.65;21.73;;;2.60;59.50;;;;;;5071526;28;20377;-69
2022/01/12 13:43:02;;;;;;;40.90;22.33;;;2.50;59.80;;;;;;5071376;28;20032;-67
2022/01/12 13:45:38;;;;;;;37.47;21.42;;;2.60;60.00;;;;;;5071350;28;20119;-69
2022/01/12 13:48:12;;;;;;;40.75;21.48;;;2.60;60.00;;;;;;5071342;28;20051;-69
2022/01/12 13:50:52;;;;;;;38.70;20.90;;;2.70;59.80;;;;;;5072580;28;20028;-71
2022/01/12 13:53:30;;;;;;;43.30;21.42;;;2.70;59.60;;;;;;5071515;28;20024;-69
2022/01/12 13:55:55;;;;;;;39.22;21.17;;;2.70;59.40;;;;;;5070839;28;20040;-70
2022/01/12 13:58:26;;;;;;;37.88;21.85;;;2.70;59.50;;;;;;5071062;28;20033;-70
2022/01/12 14:01:03;;;;;;;52.53;22.98;;;2.60;59.80;;;;;;5071998;28;20079;-69
2022/01/12 14:03:29;;;;;;;37.53;20.25;;;2.70;59.90;;;;;;5072046;28;20020;-71
2022/01/12 14:05:59;;;;;;;43.92;22.10;;;2.60;60.00;;;;;;5070837;28;20033;-68